Time;durP1;ratioP1;P1;durP2;ratioP2;P2;SDS_P1;SDS_P2;PMS_P1;PMS_P2;Temp;Humidity;BMP_temperature;BMP_pressure;BME280_temperature;BME280_humidity;BME280_pressure;Samples;Min_cycle;Max_cycle;Signal;HPM_P1;HPM_P2
2023/12/11 00:01:20;;;;;;;14.55;8.90;;;;;;;2.05;78.32;94682.47;5075306;28;20040;-73
2023/12/11 00:03:45;;;;;;;28.48;15.68;;;;;;;1.93;79.15;94703.59;5077372;28;20040;-73
2023/12/11 00:06:11;;;;;;;13.75;8.30;;;;;;;1.78;79.15;94707.75;5091719;28;20498;-73
2023/12/11 00:08:36;;;;;;;15.15;7.85;;;;;;;1.82;79.18;94705.88;5091535;28;20409;-73
2023/12/11 00:11:02;;;;;;;13.50;7.88;;;;;;;1.88;78.87;94723.50;5102790;28;20031;-73
2023/12/11 00:13:27;;;;;;;12.68;7.85;;;;;;;1.81;79.07;94722.16;5074087;28;20040;-73
2023/12/11 00:15:53;;;;;;;13.27;7.43;;;;;;;1.73;78.55;94719.97;5105633;28;20489;-73
2023/12/11 00:18:18;;;;;;;11.18;7.03;;;;;;;1.52;79.41;94726.97;5082496;28;20032;-73
2023/12/11 00:20:44;;;;;;;11.45;6.63;;;;;;;1.60;77.57;94730.00;5093225;28;20024;-72
2023/12/11 00:23:09;;;;;;;12.30;7.65;;;;;;;1.71;77.39;94742.28;5087203;28;20031;-73
2023/12/11 00:25:35;;;;;;;11.23;7.30;;;;;;;1.65;77.17;94747.72;5101835;28;20502;-73
2023/12/11 00:28:01;;;;;;;11.00;7.18;;;;;;;1.40;78.76;94738.66;5104728;28;20041;-73
2023/12/11 00:30:26;;;;;;;16.83;9.55;;;;;;;1.25;78.71;94734.25;5096698;28;20101;-73
2023/12/11 00:32:52;;;;;;;11.50;6.75;;;;;;;1.21;79.13;94746.38;5089364;28;20024;-73
2023/12/11 00:35:17;;;;;;;12.02;7.15;;;;;;;1.30;79.03;94737.41;5082668;28;20035;-73
2023/12/11 00:37:43;;;;;;;9.77;5.82;;;;;;;1.16;79.30;94730.41;5143701;27;20506;-73
2023/12/11 00:40:10;;;;;;;13.90;7.97;;;;;;;1.15;79.08;94736.44;5077899;28;20062;-73
2023/12/11 00:42:35;;;;;;;13.82;8.18;;;;;;;1.09;79.77;94727.31;5099989;28;20098;-73
2023/12/11 00:45:01;;;;;;;12.93;8.35;;;;;;;0.95;80.74;94746.75;5098509;28;20047;-73
2023/12/11 00:47:26;;;;;;;11.75;7.28;;;;;;;1.24;79.91;94748.78;5096098;28;20022;-73
2023/12/11 00:49:52;;;;;;;11.27;7.57;;;;;;;1.07;80.62;94741.91;5088599;28;20504;-73
2023/12/11 00:52:17;;;;;;;9.00;6.35;;;;;;;1.24;80.23;94743.66;5090883;28;20421;-73
2023/12/11 00:54:43;;;;;;;9.88;5.60;;;;;;;1.17;79.40;94739.75;5073815;28;20043;-73
2023/12/11 00:57:09;;;;;;;10.93;5.88;;;;;;;1.07;80.27;94748.75;5100336;28;20482;-73
2023/12/11 00:59:34;;;;;;;13.68;7.88;;;;;;;1.08;80.39;94745.28;5090591;28;20071;-73
2023/12/11 01:02:00;;;;;;;15.05;8.80;;;;;;;1.06;81.09;94739.44;5088421;28;20059;-73
2023/12/11 01:04:25;;;;;;;13.20;7.93;;;;;;;0.87;81.40;94735.16;5095824;28;20035;-73
2023/12/11 01:06:50;;;;;;;11.40;6.65;;;;;;;1.26;80.65;94753.84;5093533;28;20032;-73
2023/12/11 01:09:16;;;;;;;10.60;6.88;;;;;;;1.32;81.10;94741.56;5100406;28;20042;-73
2023/12/11 01:11:41;;;;;;;11.73;7.20;;;;;;;1.09;81.10;94735.00;5090261;28;20070;-73
2023/12/11 01:14:07;;;;;;;13.23;8.13;;;;;;;1.12;81.22;94739.13;5091510;28;20032;-73
2023/12/11 01:16:32;;;;;;;11.07;7.38;;;;;;;1.29;80.76;94728.09;5095827;28;20031;-73
2023/12/11 01:18:58;;;;;;;11.02;7.05;;;;;;;1.08;81.19;94724.81;5110246;28;20039;-73
2023/12/11 01:21:23;;;;;;;10.68;6.75;;;;;;;1.09;81.03;94718.81;5075502;28;20414;-73
2023/12/11 01:23:48;;;;;;;11.85;6.70;;;;;;;1.10;81.65;94746.88;5095615;28;20035;-73
2023/12/11 01:26:14;;;;;;;8.77;5.63;;;;;;;1.45;80.55;94725.59;5101920;28;20028;-73
2023/12/11 01:28:39;;;;;;;11.57;6.60;;;;;;;1.28;80.63;94734.94;5073292;28;20036;-73
2023/12/11 01:31:05;;;;;;;10.93;6.40;;;;;;;1.33;81.40;94732.16;5096373;28;20051;-73
2023/12/11 01:33:31;;;;;;;12.18;8.00;;;;;;;1.24;81.64;94730.88;5106721;28;20023;-73
2023/12/11 01:35:56;;;;;;;13.43;6.95;;;;;;;1.23;81.41;94716.44;5080920;28;20039;-73
2023/12/11 01:38:22;;;;;;;11.23;6.85;;;;;;;1.38;81.00;94719.16;5091057;28;20023;-73
2023/12/11 01:40:47;;;;;;;12.00;7.00;;;;;;;1.50;80.61;94731.34;5083739;28;20104;-73
2023/12/11 01:43:17;;;;;;;12.63;6.90;;;;;;;1.43;79.58;94719.75;5081553;28;20032;-73
2023/12/11 01:45:42;;;;;;;13.88;8.25;;;;;;;1.25;80.39;94726.56;5072876;28;20097;-73
2023/12/11 01:48:09;;;;;;;19.30;11.20;;;;;;;1.18;81.19;94723.50;5092029;28;20036;-73
2023/12/11 01:50:34;;;;;;;14.52;8.23;;;;;;;1.30;80.92;94707.53;5076149;28;20293;-73
2023/12/11 01:53:00;;;;;;;12.60;7.75;;;;;;;1.22;81.14;94724.97;5092091;28;20040;-73
2023/12/11 01:55:25;;;;;;;10.93;6.70;;;;;;;1.28;80.28;94705.94;5090747;28;20486;-72
2023/12/11 01:57:51;;;;;;;14.73;7.50;;;;;;;1.23;80.49;94710.47;5092012;28;20035;-72
2023/12/11 02:00:17;;;;;;;15.52;8.65;;;;;;;1.34;79.88;94715.91;5079094;28;20387;-72
2023/12/11 02:02:42;;;;;;;12.45;8.02;;;;;;;1.24;79.97;94705.28;5088385;28;20035;-72
2023/12/11 02:05:07;;;;;;;21.73;14.45;;;;;;;1.13;80.36;94712.63;5087255;28;20032;-72
2023/12/11 02:07:33;;;;;;;20.05;12.82;;;;;;;0.89;81.01;94727.41;5090602;28;20035;-72
2023/12/11 02:09:58;;;;;;;22.63;14.43;;;;;;;0.95;80.59;94710.94;5088230;28;20069;-72
2023/12/11 02:12:24;;;;;;;22.13;13.50;;;;;;;0.97;80.49;94704.03;5092343;28;20116;-73
2023/12/11 02:14:49;;;;;;;21.88;14.55;;;;;;;0.76;80.72;94693.09;5109887;28;20398;-72
2023/12/11 02:17:15;;;;;;;25.23;16.25;;;;;;;0.85;80.53;94700.31;5092691;28;20016;-72
2023/12/11 02:19:40;;;;;;;33.25;18.00;;;;;;;0.46;82.56;94702.97;5095824;28;20040;-73
2023/12/11 02:22:06;;;;;;;25.77;15.77;;;;;;;0.67;81.98;94702.00;5072630;28;20437;-73
2023/12/11 02:24:39;;;;;;;20.58;12.73;;;;;;;0.73;81.76;94698.34;5089583;28;20032;-73
2023/12/11 02:27:05;;;;;;;19.52;12.48;;;;;;;0.67;81.82;94702.00;5089583;28;20111;-72
2023/12/11 02:29:30;;;;;;;17.05;11.52;;;;;;;0.59;81.58;94691.31;5088316;28;20111;-72
2023/12/11 02:31:56;;;;;;;15.88;11.35;;;;;;;0.70;80.08;94696.75;5092581;28;20067;-73
2023/12/11 02:34:21;;;;;;;19.10;11.52;;;;;;;0.31;80.62;94715.56;5093594;28;20027;-73
2023/12/11 02:36:48;;;;;;;17.15;10.40;;;;;;;0.39;80.83;94720.28;5094110;28;20089;-73
2023/12/11 02:39:13;;;;;;;14.18;9.63;;;;;;;0.38;80.00;94706.69;5069018;28;20039;-73
2023/12/11 02:41:39;;;;;;;16.17;9.27;;;;;;;0.43;80.87;94711.63;5113854;28;20230;-73
2023/12/11 02:44:04;;;;;;;15.77;9.80;;;;;;;0.41;80.77;94711.66;5094010;28;20084;-73
2023/12/11 02:46:30;;;;;;;13.20;8.27;;;;;;;0.55;80.76;94723.00;5092388;28;20044;-73
2023/12/11 02:48:55;;;;;;;11.95;7.90;;;;;;;0.50;80.67;94727.50;5093270;28;20481;-73
2023/12/11 02:51:20;;;;;;;11.95;6.90;;;;;;;0.41;80.16;94716.78;5113233;28;20398;-73
2023/12/11 02:53:46;;;;;;;10.65;6.75;;;;;;;0.37;80.08;94724.66;5113528;28;20069;-73
2023/12/11 02:56:12;;;;;;;14.35;7.32;;;;;;;0.07;81.23;94726.84;5095458;28;20028;-73
2023/12/11 02:58:37;;;;;;;11.43;5.95;;;;;;;0.05;80.47;94724.34;5094897;28;20028;-73
2023/12/11 03:01:03;;;;;;;14.15;10.95;;;;;;;0.10;80.24;94721.59;5069684;28;20035;-72
2023/12/11 03:03:28;;;;;;;13.75;8.57;;;;;;;-0.23;82.53;94725.50;5092093;28;20528;-72
2023/12/11 03:05:54;;;;;;;19.50;11.27;;;;;;;0.05;82.32;94729.44;5075105;28;20452;-72
2023/12/11 03:08:19;;;;;;;16.38;10.82;;;;;;;0.18;82.64;94715.25;5111222;28;20035;-73
2023/12/11 03:10:45;;;;;;;21.00;14.05;;;;;;;-0.06;83.07;94721.41;5112760;28;20421;-73
2023/12/11 03:13:10;;;;;;;26.38;15.90;;;;;;;0.00;83.71;94713.50;5074400;28;20024;-72
2023/12/11 03:15:36;;;;;;;22.98;14.55;;;;;;;0.24;83.05;94721.81;5095697;28;20039;-72
2023/12/11 03:18:01;;;;;;;25.20;15.52;;;;;;;0.28;82.87;94722.50;5095861;28;20038;-72
2023/12/11 03:20:26;;;;;;;16.52;10.43;;;;;;;0.19;83.10;94716.06;5079038;28;20052;-73
2023/12/11 03:22:52;;;;;;;14.73;8.88;;;;;;;0.33;83.05;94715.47;5058347;28;20033;-73
2023/12/11 03:25:17;;;;;;;16.33;10.32;;;;;;;-0.02;83.90;94713.56;5098384;28;20509;-72
2023/12/11 03:27:43;;;;;;;22.05;13.27;;;;;;;0.33;83.19;94710.34;5081842;28;20036;-73
2023/12/11 03:30:09;;;;;;;18.40;10.32;;;;;;;0.30;83.70;94713.88;5075343;28;20048;-72
2023/12/11 03:32:34;;;;;;;15.90;8.88;;;;;;;0.46;83.81;94720.88;5078984;28;20051;-73
2023/12/11 03:35:00;;;;;;;11.30;7.38;;;;;;;0.38;83.48;94719.47;5092269;28;20048;-72
2023/12/11 03:37:25;;;;;;;10.82;7.30;;;;;;;0.38;83.92;94726.31;5092151;28;20028;-72
2023/12/11 03:39:50;;;;;;;11.02;6.53;;;;;;;0.28;84.36;94707.16;5091328;28;20077;-72
2023/12/11 03:42:16;;;;;;;19.52;10.77;;;;;;;0.31;84.41;94697.66;5105301;28;20024;-72
2023/12/11 03:44:41;;;;;;;12.13;8.13;;;;;;;0.63;83.93;94713.25;5094435;28;20036;-72
2023/12/11 03:47:07;;;;;;;8.82;6.13;;;;;;;0.48;82.88;94696.09;5110761;28;20016;-73
2023/12/11 03:49:32;;;;;;;11.52;7.55;;;;;;;0.46;82.50;94690.19;5109715;28;20032;-73
2023/12/11 03:51:58;;;;;;;9.13;6.15;;;;;;;0.41;82.52;94695.50;5090064;28;20043;-73
2023/12/11 03:54:23;;;;;;;9.57;6.05;;;;;;;0.46;82.03;94703.81;5093236;28;20116;-73
2023/12/11 03:56:49;;;;;;;8.32;5.25;;;;;;;0.56;81.77;94704.22;5092230;28;20105;-73
2023/12/11 03:59:14;;;;;;;11.55;6.38;;;;;;;0.35;82.16;94695.78;5098148;28;20047;-73
2023/12/11 04:01:40;;;;;;;9.45;5.35;;;;;;;0.38;82.99;94705.88;5093975;28;20073;-74
2023/12/11 04:04:05;;;;;;;9.82;5.00;;;;;;;0.40;81.82;94694.69;5086703;28;20402;-73
2023/12/11 04:06:31;;;;;;;11.02;6.38;;;;;;;0.16;83.26;94680.44;5091891;28;20090;-72
2023/12/11 04:08:56;;;;;;;12.27;6.20;;;;;;;0.34;83.25;94715.41;5092359;28;20036;-72
2023/12/11 04:11:22;;;;;;;11.23;6.38;;;;;;;0.08;82.93;94698.66;5077354;28;20486;-72
2023/12/11 04:13:47;;;;;;;11.30;5.75;;;;;;;0.17;82.55;94713.59;5084013;28;20103;-72
2023/12/11 04:16:13;;;;;;;9.30;6.57;;;;;;;0.23;82.67;94702.28;5088493;28;20031;-72
2023/12/11 04:18:38;;;;;;;9.35;6.07;;;;;;;0.15;83.28;94692.41;5074388;28;20031;-72
2023/12/11 04:21:04;;;;;;;8.65;5.50;;;;;;;0.20;82.86;94712.63;5106589;28;20031;-72
2023/12/11 04:23:29;;;;;;;9.05;5.30;;;;;;;0.34;83.28;94700.06;5101227;27;20116;-72
2023/12/11 04:25:58;;;;;;;7.93;4.72;;;;;;;0.39;83.05;94695.59;5082208;28;20032;-72
2023/12/11 04:28:24;;;;;;;9.95;5.13;;;;;;;0.46;83.00;94698.69;5091370;28;20051;-72
2023/12/11 04:30:49;;;;;;;8.27;5.53;;;;;;;0.39;82.96;94692.19;5092707;28;20594;-73
2023/12/11 04:33:15;;;;;;;19.60;11.75;;;;;;;0.63;82.12;94721.75;5093628;28;20024;-72
2023/12/11 04:35:40;;;;;;;23.52;15.02;;;;;;;0.68;81.56;94719.00;5080216;28;20024;-72
2023/12/11 04:38:06;;;;;;;20.02;13.75;;;;;;;0.76;81.15;94716.91;5111609;28;20059;-72
2023/12/11 04:40:31;;;;;;;24.23;16.83;;;;;;;0.74;81.08;94707.66;5087295;28;20039;-72
2023/12/11 04:42:57;;;;;;;18.50;11.35;;;;;;;0.53;81.68;94704.34;5110073;28;20027;-72
2023/12/11 04:45:22;;;;;;;8.18;5.13;;;;;;;0.54;82.30;94714.50;5076508;28;20413;-72
2023/12/11 04:47:48;;;;;;;9.23;5.90;;;;;;;0.80;81.31;94718.44;5094322;28;20035;-73
2023/12/11 04:50:13;;;;;;;9.98;6.55;;;;;;;0.93;81.47;94728.94;5094297;28;20077;-72
2023/12/11 04:52:39;;;;;;;10.85;6.63;;;;;;;0.89;81.32;94723.13;5065613;28;20032;-72
2023/12/11 04:55:05;;;;;;;10.63;6.95;;;;;;;0.98;81.80;94721.88;5091523;28;20470;-72
2023/12/11 04:57:30;;;;;;;15.43;9.38;;;;;;;1.07;80.86;94713.75;5092143;28;20053;-73
2023/12/11 04:59:56;;;;;;;9.38;5.82;;;;;;;1.22;81.37;94730.09;5090637;28;20032;-72
2023/12/11 05:02:21;;;;;;;14.30;10.63;;;;;;;1.27;80.99;94724.78;5073668;28;20047;-72
2023/12/11 05:04:47;;;;;;;7.85;5.32;;;;;;;1.27;81.02;94717.91;5090457;28;20057;-72
2023/12/11 05:07:12;;;;;;;6.20;4.30;;;;;;;1.28;80.48;94716.19;5073589;28;20057;-72
2023/12/11 05:09:37;;;;;;;7.07;4.32;;;;;;;1.31;80.49;94703.25;5090429;28;20024;-72
2023/12/11 05:12:03;;;;;;;6.32;4.20;;;;;;;1.24;80.44;94712.94;5090459;28;20498;-72
2023/12/11 05:14:29;;;;;;;7.68;4.00;;;;;;;1.37;80.08;94712.38;5090417;28;20125;-72
2023/12/11 05:16:54;;;;;;;7.10;4.32;;;;;;;1.52;79.88;94711.63;5090390;28;20047;-70
2023/12/11 05:19:20;;;;;;;5.47;3.90;;;;;;;1.25;79.66;94694.13;5089546;28;20019;-73
2023/12/11 05:21:45;;;;;;;7.28;4.60;;;;;;;1.50;79.46;94708.28;5066913;28;20464;-73
2023/12/11 05:24:11;;;;;;;6.60;4.53;;;;;;;1.47;79.48;94709.28;5069421;28;20066;-73
2023/12/11 05:26:37;;;;;;;6.45;4.25;;;;;;;1.62;78.79;94717.94;5068632;28;20032;-73
2023/12/11 05:29:03;;;;;;;6.22;4.32;;;;;;;1.64;78.92;94711.00;5086241;28;20123;-73
2023/12/11 05:31:29;;;;;;;6.65;4.15;;;;;;;1.57;79.15;94714.78;5085439;28;20114;-73
2023/12/11 05:33:55;;;;;;;6.38;3.80;;;;;;;1.45;79.62;94721.34;5084180;28;20132;-73
2023/12/11 05:36:20;;;;;;;11.05;6.55;;;;;;;1.84;79.00;94737.34;5069204;28;20040;-73
2023/12/11 05:38:46;;;;;;;51.20;20.67;;;;;;;1.88;78.74;94734.56;5123640;27;20024;-73
2023/12/11 05:41:11;;;;;;;16.20;7.75;;;;;;;1.53;78.61;94703.03;5087106;28;20043;-73
2023/12/11 05:43:37;;;;;;;10.30;6.15;;;;;;;1.78;78.60;94739.34;5118734;27;20051;-73
2023/12/11 05:46:02;;;;;;;10.50;5.93;;;;;;;1.85;77.98;94724.47;5069499;28;20043;-73
2023/12/11 05:48:28;;;;;;;7.97;5.18;;;;;;;1.96;77.44;94721.38;5053135;28;20123;-73
2023/12/11 05:50:53;;;;;;;9.60;6.07;;;;;;;2.07;77.33;94737.03;5069242;28;20043;-73
2023/12/11 05:53:19;;;;;;;10.48;6.63;;;;;;;1.95;77.58;94728.25;5050779;28;20028;-73
2023/12/11 05:55:44;;;;;;;21.08;12.23;;;;;;;1.90;78.75;94737.06;5085656;28;20498;-73
2023/12/11 05:58:10;;;;;;;7.22;4.78;;;;;;;2.16;77.54;94740.88;5069850;28;20078;-73
2023/12/11 06:00:35;;;;;;;6.28;4.35;;;;;;;2.05;77.76;94736.28;5086249;28;20551;-73
2023/12/11 06:03:01;;;;;;;6.72;4.57;;;;;;;1.99;78.71;94727.19;5068393;28;20043;-73
2023/12/11 06:05:26;;;;;;;7.40;4.53;;;;;;;1.97;79.17;94753.78;5085765;28;20078;-73
2023/12/11 06:07:51;;;;;;;15.02;9.27;;;;;;;2.12;78.65;94749.63;5120113;27;20081;-73
2023/12/11 06:10:17;;;;;;;18.15;11.80;;;;;;;2.29;77.81;94761.59;5070789;28;20035;-73
2023/12/11 06:12:42;;;;;;;13.43;8.13;;;;;;;2.27;77.69;94748.00;5090199;28;20414;-73
2023/12/11 06:15:08;;;;;;;6.80;4.55;;;;;;;2.16;78.16;94753.69;5090960;28;20421;-73
2023/12/11 06:17:34;;;;;;;7.85;5.03;;;;;;;2.18;78.54;94747.56;5080023;28;20434;-73
2023/12/11 06:19:59;;;;;;;6.88;4.72;;;;;;;2.11;78.14;94756.47;5069047;28;20040;-74
2023/12/11 06:22:25;;;;;;;8.25;4.75;;;;;;;2.12;78.38;94750.47;5055757;28;20110;-73
2023/12/11 06:24:50;;;;;;;7.47;5.18;;;;;;;2.13;78.35;94736.72;5089416;28;20043;-73
2023/12/11 06:27:16;;;;;;;10.30;7.00;;;;;;;2.36;78.19;94744.97;5054352;28;20035;-73
2023/12/11 06:29:41;;;;;;;10.68;5.70;;;;;;;2.42;77.63;94736.94;5086412;28;20077;-73
2023/12/11 06:32:08;;;;;;;9.45;6.13;;;;;;;2.21;77.58;94701.28;5098933;28;20529;-73
2023/12/11 06:34:34;;;;;;;9.70;5.63;;;;;;;2.39;78.46;94745.63;5090951;28;20486;-74
2023/12/11 06:36:59;;;;;;;7.97;4.68;;;;;;;2.37;77.54;94747.47;5101618;28;20047;-73
2023/12/11 06:39:26;;;;;;;6.95;4.70;;;;;;;2.34;77.61;94752.75;5109831;28;20523;-73
2023/12/11 06:41:52;;;;;;;7.13;4.63;;;;;;;2.33;77.33;94763.91;5106105;28;20038;-73
2023/12/11 06:44:18;;;;;;;12.63;6.32;;;;;;;2.30;76.84;94747.84;5047223;28;20409;-73
2023/12/11 06:46:43;;;;;;;11.98;6.60;;;;;;;2.17;77.04;94761.31;5068287;28;20247;-73
2023/12/11 06:49:09;;;;;;;12.48;6.65;;;;;;;2.20;77.43;94768.00;5051726;28;20023;-73
2023/12/11 06:51:35;;;;;;;7.70;5.13;;;;;;;2.24;78.53;94770.31;5067243;28;20050;-73
2023/12/11 06:54:01;;;;;;;7.97;4.68;;;;;;;2.56;77.16;94767.81;5085353;28;20024;-73
2023/12/11 06:56:32;;;;;;;7.15;4.63;;;;;;;2.65;76.94;94759.69;5090915;28;20028;-73
2023/12/11 06:58:58;;;;;;;;;;;;;;;2.86;75.19;94762.81;5092391;28;20036;-73
2023/12/11 07:01:28;;;;;;;9.57;4.88;;;;;;;2.74;75.46;94748.09;5091074;28;19980;-74
2023/12/11 07:03:54;;;;;;;10.30;6.43;;;;;;;2.74;75.77;94754.97;5092473;28;20042;-75
2023/12/11 07:06:19;;;;;;;8.65;5.40;;;;;;;2.88;75.55;94763.56;5074760;28;20047;-75
2023/12/11 07:08:45;;;;;;;6.63;4.40;;;;;;;3.06;75.29;94774.56;5087956;28;20032;-76
2023/12/11 07:11:10;;;;;;;6.93;4.05;;;;;;;3.24;74.52;94785.59;5108959;28;20047;-77
2023/12/11 07:13:36;;;;;;;6.45;4.63;;;;;;;3.22;75.19;94784.03;5091868;28;20032;-73
2023/12/11 07:16:01;;;;;;;6.07;4.20;;;;;;;3.44;74.52;94788.81;5107273;28;20028;-74
2023/12/11 07:18:27;;;;;;;9.57;5.45;;;;;;;3.44;74.14;94791.38;5094120;28;20505;-73
2023/12/11 07:20:52;;;;;;;8.35;4.53;;;;;;;3.39;74.18;94789.06;5093653;28;20517;-73
2023/12/11 07:23:18;;;;;;;40.67;24.08;;;;;;;3.12;75.48;94781.97;5101462;28;20088;-73
2023/12/11 07:25:43;;;;;;;45.75;24.40;;;;;;;3.51;74.99;94793.53;5093486;28;20036;-73
2023/12/11 07:28:10;;;;;;;50.60;28.70;;;;;;;3.79;74.30;94802.28;5096050;28;20570;-73
2023/12/11 07:30:35;;;;;;;46.67;27.52;;;;;;;3.74;74.30;94792.25;5112190;28;20097;-73
2023/12/11 07:33:00;;;;;;;39.55;23.75;;;;;;;3.77;73.63;94794.66;5112718;28;20035;-73
2023/12/11 07:35:26;;;;;;;39.10;24.75;;;;;;;3.51;74.98;94802.97;5112785;28;20053;-73
2023/12/11 07:37:51;;;;;;;44.65;26.45;;;;;;;3.66;75.10;94809.00;5112701;28;20027;-73
2023/12/11 07:40:17;;;;;;;37.95;23.58;;;;;;;3.85;73.36;94799.34;5112521;28;20035;-73
2023/12/11 07:42:43;;;;;;;31.20;18.65;;;;;;;3.94;72.31;94785.97;5112637;28;20038;-73
2023/12/11 07:45:09;;;;;;;20.52;13.95;;;;;;;4.05;71.68;94785.34;5079031;28;20409;-73
2023/12/11 07:47:34;;;;;;;17.88;10.65;;;;;;;4.13;71.63;94810.63;5095513;28;20050;-73
2023/12/11 07:50:00;;;;;;;14.13;9.57;;;;;;;4.20;70.86;94806.78;5113756;28;20036;-72
2023/12/11 07:52:32;;;;;;;10.07;6.35;;;;;;;4.10;69.88;94806.50;5095553;28;20106;-72
2023/12/11 07:54:58;;;;;;;10.85;6.43;;;;;;;4.02;71.59;94808.69;5112427;28;20031;-72
2023/12/11 07:57:25;;;;;;;9.15;6.75;;;;;;;4.08;70.93;94800.59;5095290;28;20026;-72
2023/12/11 07:59:51;;;;;;;9.10;6.55;;;;;;;4.28;69.99;94811.47;5078646;28;20189;-72
2023/12/11 08:02:16;;;;;;;8.18;4.38;;;;;;;4.22;68.66;94810.09;5095310;28;20031;-72
2023/12/11 08:04:42;;;;;;;12.02;7.05;;;;;;;4.05;69.12;94805.09;5112140;28;20043;-72
2023/12/11 08:07:07;;;;;;;9.82;6.18;;;;;;;4.31;69.26;94814.69;5095264;28;20479;-72
2023/12/11 08:09:37;;;;;;;12.35;7.72;;;;;;;4.35;69.67;94815.38;5095272;28;20027;-72
2023/12/11 08:12:02;;;;;;;26.00;14.13;;;;;;;3.98;70.88;94812.31;5112041;28;20039;-73
2023/12/11 08:14:28;;;;;;;29.23;17.13;;;;;;;4.28;70.73;94814.06;5112070;28;20448;-72
2023/12/11 08:16:53;;;;;;;27.08;15.70;;;;;;;4.25;71.19;94815.06;5112059;28;20039;-72
2023/12/11 08:19:19;;;;;;;25.00;14.77;;;;;;;3.99;71.88;94803.72;5112208;28;20019;-72
2023/12/11 08:21:44;;;;;;;24.10;15.25;;;;;;;4.22;71.56;94822.97;5111997;28;20520;-72
2023/12/11 08:24:10;;;;;;;20.70;11.50;;;;;;;4.08;70.88;94810.88;5095005;28;20061;-72
2023/12/11 08:26:35;;;;;;;17.95;11.07;;;;;;;4.27;71.58;94807.28;5111806;28;20039;-72
2023/12/11 08:29:01;;;;;;;15.25;9.60;;;;;;;3.79;72.49;94812.56;5111877;28;20027;-72
2023/12/11 08:31:26;;;;;;;16.35;8.82;;;;;;;4.12;72.22;94824.38;5094718;28;20059;-72
2023/12/11 08:33:52;;;;;;;17.27;10.57;;;;;;;4.06;72.21;94793.91;5111741;28;20039;-72
2023/12/11 08:36:17;;;;;;;14.48;9.38;;;;;;;4.37;70.64;94787.78;5111628;28;20485;-72
2023/12/11 08:38:43;;;;;;;12.88;8.70;;;;;;;4.75;69.59;94805.28;5113056;28;20030;-72
2023/12/11 08:41:08;;;;;;;9.85;6.50;;;;;;;4.74;68.88;94801.06;5111493;28;20066;-72
2023/12/11 08:43:34;;;;;;;8.43;5.97;;;;;;;4.70;67.38;94808.94;5094483;28;20153;-72
2023/12/11 08:45:59;;;;;;;11.40;7.45;;;;;;;4.64;68.26;94811.06;5111411;28;20109;-71
2023/12/11 08:48:25;;;;;;;9.32;5.95;;;;;;;4.90;68.13;94812.91;5077590;28;20039;-72
2023/12/11 08:50:52;;;;;;;9.43;6.32;;;;;;;4.84;66.84;94812.44;5111244;28;20069;-72
2023/12/11 08:53:19;;;;;;;9.95;6.22;;;;;;;4.73;66.72;94802.78;5112725;28;20065;-72
2023/12/11 08:55:44;;;;;;;10.25;5.95;;;;;;;4.70;67.88;94800.41;5111215;28;20054;-71
2023/12/11 08:58:10;;;;;;;8.60;5.57;;;;;;;4.66;68.00;94799.75;5112559;28;20370;-71
2023/12/11 09:00:36;;;;;;;8.52;5.30;;;;;;;4.89;68.58;94803.53;5094079;28;20496;-72
2023/12/11 09:03:01;;;;;;;10.85;6.93;;;;;;;4.80;67.51;94782.66;5094210;28;20531;-72
2023/12/11 09:05:26;;;;;;;13.60;8.63;;;;;;;4.69;68.65;94773.03;5112276;28;20035;-72
2023/12/11 09:07:52;;;;;;;12.50;7.70;;;;;;;4.67;67.76;94764.56;5111094;28;20031;-72
2023/12/11 09:10:17;;;;;;;14.90;7.70;;;;;;;4.69;68.60;94766.13;5110920;28;20028;-73
2023/12/11 09:12:43;;;;;;;15.10;8.18;;;;;;;4.67;68.39;94762.00;5110764;28;20197;-72
2023/12/11 09:15:09;;;;;;;13.45;7.63;;;;;;;4.68;69.25;94771.34;5110780;28;20065;-72
2023/12/11 09:17:34;;;;;;;14.30;8.57;;;;;;;4.89;68.34;94764.91;5093850;28;20031;-73
2023/12/11 09:20:04;;;;;;;11.65;7.72;;;;;;;4.84;67.83;94756.63;5110715;28;20394;-72
2023/12/11 09:22:29;;;;;;;11.88;7.60;;;;;;;4.70;68.27;94766.94;5110753;28;20063;-72
2023/12/11 09:24:55;;;;;;;12.85;8.00;;;;;;;4.91;68.44;94762.25;5076837;28;20484;-73
2023/12/11 09:27:21;;;;;;;12.27;7.35;;;;;;;4.99;67.07;94748.91;5110603;28;20027;-72
2023/12/11 09:29:50;;;;;;;12.48;7.20;;;;;;;5.08;67.10;94748.34;5110327;28;20050;-72
2023/12/11 09:32:15;;;;;;;10.38;7.07;;;;;;;5.17;67.63;94746.94;5094032;28;20039;-72
2023/12/11 09:34:41;;;;;;;12.30;6.70;;;;;;;5.23;65.34;94742.22;5110459;28;20019;-72
2023/12/11 09:37:06;;;;;;;10.63;6.00;;;;;;;4.95;66.72;94735.38;5111725;28;20019;-72
2023/12/11 09:39:32;;;;;;;12.23;6.93;;;;;;;5.16;66.29;94730.66;5110422;28;20032;-73
2023/12/11 09:41:57;;;;;;;14.48;9.48;;;;;;;4.87;66.93;94735.03;5076565;28;20084;-72
2023/12/11 09:44:23;;;;;;;15.00;8.63;;;;;;;4.87;67.59;94733.28;5093559;28;20126;-72
2023/12/11 09:46:54;;;;;;;15.50;7.70;;;;;;;5.01;67.54;94731.59;5093443;28;20031;-72
2023/12/11 09:49:19;;;;;;;12.03;6.20;;;;;;;5.37;64.37;94726.69;5111931;28;20114;-72
2023/12/11 09:51:45;;;;;;;8.20;5.57;;;;;;;5.64;63.58;94710.41;5093105;28;20297;-73
2023/12/11 09:54:11;;;;;;;9.35;5.65;;;;;;;5.97;62.09;94702.25;5093463;28;20039;-72
2023/12/11 09:56:36;;;;;;;11.68;6.00;;;;;;;6.17;61.03;94708.63;5093303;28;20077;-73
2023/12/11 09:59:02;;;;;;;9.77;5.60;;;;;;;6.23;62.01;94715.16;5110390;28;20665;-72
2023/12/11 10:01:27;;;;;;;10.25;6.18;;;;;;;6.12;63.37;94704.72;5110165;28;20486;-72
2023/12/11 10:03:53;;;;;;;10.90;6.38;;;;;;;5.89;63.20;94714.78;5093279;28;20023;-72
2023/12/11 10:06:18;;;;;;;8.32;5.47;;;;;;;6.26;60.36;94708.00;5111357;28;20032;-72
2023/12/11 10:08:45;;;;;;;8.77;5.47;;;;;;;6.13;61.14;94702.06;5111134;28;20497;-72
2023/12/11 10:11:14;;;;;;;8.32;5.78;;;;;;;6.12;61.30;94691.81;5093202;28;20036;-72
2023/12/11 10:13:40;;;;;;;8.48;5.70;;;;;;;6.40;59.93;94680.47;5076628;28;20027;-72
2023/12/11 10:16:25;;;;;;;10.93;5.82;;;;;;;6.36;60.37;94682.44;5110112;28;20231;-72
2023/12/11 10:18:50;;;;;;;9.75;5.70;;;;;;;5.87;61.45;94672.78;5095744;28;20074;-72
2023/12/11 10:21:16;;;;;;;9.60;5.70;;;;;;;6.12;60.45;94690.06;5093096;28;20055;-72
2023/12/11 10:23:42;;;;;;;11.30;6.45;;;;;;;6.16;60.38;94691.53;5076091;28;20031;-72
2023/12/11 10:26:07;;;;;;;9.30;6.82;;;;;;;6.32;60.68;94685.31;5093039;28;20036;-72
2023/12/11 10:28:33;;;;;;;10.50;6.47;;;;;;;6.20;60.85;94674.91;5092952;28;20485;-72
2023/12/11 10:30:59;;;;;;;10.35;5.93;;;;;;;6.31;60.80;94678.50;5109518;28;20051;-72
2023/12/11 10:33:26;;;;;;;10.57;5.90;;;;;;;6.61;58.91;94680.75;5109851;28;20546;-72
2023/12/11 10:36:24;;;;;;;11.77;6.57;;;;;;;6.60;58.76;94682.50;5092869;28;20073;-72
2023/12/11 10:38:50;;;;;;;10.15;5.70;;;;;;;6.64;59.25;94681.34;5076406;28;20126;-72
2023/12/11 10:41:25;;;;;;;10.30;5.80;;;;;;;6.64;59.37;94668.44;5075861;28;20035;-72
2023/12/11 10:43:50;;;;;;;12.48;5.35;;;;;;;7.06;57.93;94673.28;5076075;28;20031;-72
2023/12/11 10:46:16;;;;;;;10.30;5.63;;;;;;;6.88;58.39;94668.50;5109832;28;20088;-72
2023/12/11 10:48:41;;;;;;;9.95;5.60;;;;;;;7.05;57.81;94669.03;5075858;28;20035;-72
2023/12/11 10:51:06;;;;;;;10.20;5.20;;;;;;;7.10;58.64;94670.38;5092695;28;20035;-72
2023/12/11 10:53:35;;;;;;;9.90;6.57;;;;;;;7.12;58.39;94675.44;5113675;28;20024;-72
2023/12/11 10:56:01;;;;;;;9.43;6.18;;;;;;;7.20;57.30;94661.97;5079554;28;20032;-72
2023/12/11 10:58:27;;;;;;;19.83;10.35;;;;;;;7.30;57.57;94673.25;5079711;28;20124;-72
2023/12/11 11:00:52;;;;;;;45.42;17.30;;;;;;;7.09;58.09;94660.16;5114666;28;20031;-72
2023/12/11 11:03:18;;;;;;;10.77;6.72;;;;;;;7.10;58.56;94678.13;5096684;28;20470;-72
2023/12/11 11:05:43;;;;;;;10.18;6.60;;;;;;;6.97;58.23;94620.53;5096224;28;20032;-72
2023/12/11 11:08:48;;;;;;;10.93;6.30;;;;;;;7.36;57.18;94647.00;5113507;28;20504;-72
2023/12/11 11:11:23;;;;;;;9.85;6.28;;;;;;;7.30;57.78;94650.88;5082497;28;20103;-72
2023/12/11 11:13:52;;;;;;;10.68;6.13;;;;;;;7.26;57.53;94661.53;5113403;28;20151;-72
2023/12/11 11:16:18;;;;;;;12.10;6.63;;;;;;;6.98;57.84;94652.34;5114422;28;20039;-73
2023/12/11 11:19:03;;;;;;;11.23;6.28;;;;;;;7.02;58.64;94649.44;5114548;28;20028;-72
2023/12/11 11:21:28;;;;;;;12.88;6.13;;;;;;;7.05;58.39;94648.38;5096078;28;20121;-72
2023/12/11 11:23:54;;;;;;;10.05;6.78;;;;;;;6.80;59.05;94620.88;5130193;27;20047;-72
2023/12/11 11:26:34;;;;;;;9.50;6.32;;;;;;;7.13;58.45;94646.06;5113030;28;20035;-72
2023/12/11 11:29:00;;;;;;;9.63;5.38;;;;;;;7.06;57.41;94637.94;5096177;28;20036;-73